createdAt,value
2019-02-23T00:02:03.757Z,100103.52
2019-02-23T00:04:35.895Z,100105.01
2019-02-23T00:07:07.980Z,100109.16
2019-02-23T00:09:40.076Z,100112.87
2019-02-23T00:12:12.252Z,100119.30
2019-02-23T00:14:44.276Z,100119.95
2019-02-23T00:17:16.356Z,100122.22
2019-02-23T00:19:48.382Z,100120.98
2019-02-23T00:22:20.460Z,100119.22
2019-02-23T00:24:52.476Z,100120.19
2019-02-23T00:27:24.473Z,100127.21
2019-02-23T00:29:56.495Z,100134.92
2019-02-23T00:32:28.500Z,100136.09
2019-02-23T00:35:00.599Z,100139.39
2019-02-23T00:37:32.681Z,100144.17
2019-02-23T00:40:04.815Z,100147.34
2019-02-23T00:42:36.822Z,100143.13
2019-02-23T00:45:09.130Z,100144.98
2019-02-23T00:47:41.017Z,100138.14
2019-02-23T00:50:12.950Z,100141.40
2019-02-23T00:52:44.879Z,100144.04
2019-02-23T00:55:16.845Z,100151.75
2019-02-23T00:57:48.782Z,100161.71
2019-02-23T01:00:20.851Z,100167.19
2019-02-23T01:02:52.773Z,100168.61
2019-02-23T01:05:24.742Z,100172.78
2019-02-23T01:07:56.669Z,100179.47
2019-02-23T01:10:28.716Z,100174.48
2019-02-23T01:13:00.682Z,100170.43
2019-02-23T01:15:32.612Z,100170.17
2019-02-23T01:18:04.549Z,100161.88
2019-02-23T01:20:36.608Z,100155.60
2019-02-23T01:23:08.492Z,100163.63
2019-02-23T01:25:40.438Z,100163.73
2019-02-23T01:28:12.361Z,100164.70
2019-02-23T01:30:44.395Z,100159.39
2019-02-23T01:33:16.336Z,100148.13
2019-02-23T01:35:48.671Z,100155.75
2019-02-23T01:38:20.603Z,100153.63
2019-02-23T01:40:52.646Z,100146.35
2019-02-23T01:43:24.704Z,100142.88
2019-02-23T01:45:56.814Z,100144.39
2019-02-23T01:48:28.716Z,100145.31
2019-02-23T01:51:00.722Z,100148.63
2019-02-23T01:53:32.666Z,100144.37
2019-02-23T01:56:04.605Z,100141.41
2019-02-23T01:58:36.649Z,100141.37
2019-02-23T02:01:09.076Z,100143.78
2019-02-23T02:03:41.216Z,100144.05
2019-02-23T02:06:13.249Z,100137.81
2019-02-23T02:08:45.615Z,100134.92
2019-02-23T02:11:17.739Z,100137.34
2019-02-23T02:13:49.843Z,100143.52
2019-02-23T02:16:21.943Z,100138.96
2019-02-23T02:18:53.968Z,100138.29
2019-02-23T02:21:26.082Z,100140.87
2019-02-23T02:23:58.100Z,100139.48
2019-02-23T02:26:30.135Z,100136.48
2019-02-23T02:29:02.229Z,100142.33
2019-02-23T02:31:34.249Z,100143.27
2019-02-23T02:34:15.534Z,100148.17
2019-02-23T02:36:48.020Z,100151.97
2019-02-23T02:39:20.072Z,100158.33
2019-02-23T02:41:52.105Z,100166.36
2019-02-23T02:44:24.079Z,100167.02
2019-02-23T02:46:56.096Z,100180.73
2019-02-23T02:49:28.075Z,100186.03
2019-02-23T02:52:00.164Z,100186.54
2019-02-23T02:54:32.227Z,100193.14
2019-02-23T02:57:04.345Z,100203.27
2019-02-23T02:59:36.404Z,100201.44
2019-02-23T03:02:08.611Z,100190.69
2019-02-23T03:04:40.752Z,100180.60
2019-02-23T03:07:12.860Z,100170.51
2019-02-23T03:09:44.871Z,100162.98
2019-02-23T03:12:16.914Z,100165.47
2019-02-23T03:14:48.945Z,100167.84
2019-02-23T03:17:21.051Z,100169.64
2019-02-23T03:19:53.142Z,100169.15
2019-02-23T03:22:25.181Z,100175.17
2019-02-23T03:24:57.194Z,100180.05
2019-02-23T03:27:29.309Z,100183.33
2019-02-23T03:30:01.409Z,100171.05
2019-02-23T03:32:35.097Z,100172.23
2019-02-23T03:35:07.500Z,100173.81
2019-02-23T03:37:39.609Z,100181.48
2019-02-23T03:40:11.957Z,100187.95
2019-02-23T03:42:44.059Z,100194.88
2019-02-23T03:45:16.259Z,100196.80
2019-02-23T03:47:48.379Z,100194.18
2019-02-23T03:50:20.479Z,100185.48
2019-02-23T03:52:52.513Z,100180.81
2019-02-23T03:55:24.608Z,100169.95
2019-02-23T03:57:56.723Z,100170.10
2019-02-23T04:00:28.811Z,100163.23
2019-02-23T04:03:00.922Z,100156.02
2019-02-23T04:05:33.268Z,100146.11
2019-02-23T04:08:05.389Z,100157.56
2019-02-23T04:10:37.432Z,100157.55
2019-02-23T04:13:09.639Z,100156.66
2019-02-23T04:15:41.681Z,100152.08
2019-02-23T04:18:13.791Z,100154.48
2019-02-23T04:20:45.895Z,100161.06
2019-02-23T04:23:18.004Z,100163.02
2019-02-23T04:25:50.024Z,100152.03
2019-02-23T04:28:22.049Z,100153.84
2019-02-23T04:30:54.083Z,100155.87
2019-02-23T04:33:26.184Z,100155.86
2019-02-23T04:35:58.219Z,100166.22
2019-02-23T04:38:30.343Z,100171.98
2019-02-23T04:41:02.372Z,100168.83
2019-02-23T04:43:34.498Z,100167.58
2019-02-23T04:46:06.596Z,100170.23
2019-02-23T04:48:38.632Z,100162.90
2019-02-23T04:51:14.501Z,100166.48
2019-02-23T04:53:44.478Z,100166.05
2019-02-23T04:56:16.589Z,100157.59
2019-02-23T04:58:48.703Z,100154.89
2019-02-23T05:01:20.813Z,100154.64
2019-02-23T05:03:52.853Z,100155.66
2019-02-23T05:06:25.005Z,100162.06
2019-02-23T05:08:57.042Z,100161.12
2019-02-23T05:11:29.082Z,100163.69
2019-02-23T05:14:01.128Z,100163.82
2019-02-23T05:16:33.168Z,100164.62
2019-02-23T05:19:05.202Z,100161.36
2019-02-23T05:21:37.235Z,100166.72
2019-02-23T05:24:09.347Z,100165.17
2019-02-23T05:26:41.455Z,100169.91
2019-02-23T05:29:13.563Z,100166.71
2019-02-23T05:31:47.744Z,100167.19
2019-02-23T05:34:19.867Z,100164.34
2019-02-23T05:36:51.960Z,100164.55
2019-02-23T05:39:24.009Z,100158.02
2019-02-23T05:41:56.124Z,100156.56
2019-02-23T05:44:28.239Z,100156.28
2019-02-23T05:47:00.277Z,100160.45
2019-02-23T05:49:32.390Z,100161.67
2019-02-23T05:52:04.491Z,100157.69
2019-02-23T05:54:36.608Z,100155.69
2019-02-23T05:57:08.709Z,100146.42
2019-02-23T05:59:40.750Z,100146.34
2019-02-23T06:02:12.856Z,100154.11
2019-02-23T06:04:44.892Z,100162.31
2019-02-23T06:07:17.107Z,100165.08
2019-02-23T06:09:49.156Z,100162.12
2019-02-23T06:12:21.253Z,100151.47
2019-02-23T06:14:53.292Z,100151.41
2019-02-23T06:17:25.395Z,100147.84
2019-02-23T06:19:57.517Z,100157.05
2019-02-23T06:22:29.619Z,100156.69
2019-02-23T06:25:01.742Z,100157.59
2019-02-23T06:27:33.847Z,100166.05
2019-02-23T06:30:07.160Z,100172.66
2019-02-23T06:32:39.278Z,100184.84
2019-02-23T06:35:11.458Z,100191.73
2019-02-23T06:37:43.558Z,100180.19
2019-02-23T06:40:15.607Z,100183.69
2019-02-23T06:42:47.707Z,100179.20
2019-02-23T06:45:19.738Z,100178.94
2019-02-23T06:47:51.831Z,100184.29
2019-02-23T06:50:23.895Z,100189.37
2019-02-23T06:52:55.930Z,100187.42
2019-02-23T06:55:27.969Z,100185.89
2019-02-23T06:58:00.084Z,100189.67
2019-02-23T07:00:32.292Z,100192.92
2019-02-23T07:03:04.417Z,100181.84
2019-02-23T07:05:36.570Z,100177.83
2019-02-23T07:08:08.659Z,100173.84
2019-02-23T07:10:40.695Z,100182.19
2019-02-23T07:13:12.734Z,100187.90
2019-02-23T07:15:44.842Z,100186.88
2019-02-23T07:18:17.235Z,100187.02
2019-02-23T07:20:49.554Z,100185.87
2019-02-23T07:23:21.654Z,100182.65
2019-02-23T07:25:53.675Z,100188.71
2019-02-23T07:28:25.766Z,100183.12
2019-02-23T07:30:57.867Z,100190.45
2019-02-23T07:33:32.899Z,100170.77
2019-02-23T07:36:03.498Z,100145.64
2019-02-23T07:38:35.676Z,100134.95
2019-02-23T07:41:07.770Z,100140.00
2019-02-23T07:43:39.835Z,100134.14
2019-02-23T07:46:11.874Z,100126.20
2019-02-23T07:48:43.976Z,100119.05
2019-02-23T07:51:16.064Z,100124.09
2019-02-23T07:53:48.093Z,100119.68
2019-02-23T07:56:20.205Z,100126.81
2019-02-23T07:58:52.302Z,100137.55
2019-02-23T08:01:24.331Z,100133.67
2019-02-23T08:03:56.437Z,100130.30
2019-02-23T08:06:28.592Z,100130.08
2019-02-23T08:09:00.687Z,100131.10
2019-02-23T08:11:32.730Z,100145.94
2019-02-23T08:14:04.759Z,100159.75
2019-02-23T08:16:36.776Z,100171.02
2019-02-23T08:19:08.897Z,100175.61
2019-02-23T08:21:40.869Z,100177.23
2019-02-23T08:24:12.924Z,100187.54
2019-02-23T08:26:45.020Z,100193.13
2019-02-23T08:29:17.158Z,100198.80
2019-02-23T08:31:49.187Z,100191.20
2019-02-23T08:34:21.273Z,100192.63
2019-02-23T08:36:53.288Z,100199.09
2019-02-23T08:39:25.385Z,100201.95
2019-02-23T08:41:57.476Z,100206.84
2019-02-23T08:44:29.501Z,100216.29
2019-02-23T08:47:01.593Z,100225.49
2019-02-23T08:49:33.696Z,100219.23
2019-02-23T08:52:06.295Z,100198.97
2019-02-23T08:54:38.339Z,100190.41
2019-02-23T08:57:10.369Z,100186.23
2019-02-23T08:59:42.469Z,100171.97
2019-02-23T09:02:14.523Z,100164.81
2019-02-23T09:04:46.671Z,100157.34
2019-02-23T09:07:18.714Z,100173.70
2019-02-23T09:09:50.809Z,100181.46
2019-02-23T09:12:22.838Z,100174.91
2019-02-23T09:14:54.939Z,100169.23
2019-02-23T09:17:26.977Z,100187.14
2019-02-23T09:19:59.084Z,100181.98
2019-02-23T09:22:31.187Z,100170.43
2019-02-23T09:25:03.209Z,100181.80
2019-02-23T09:27:35.291Z,100179.67
2019-02-23T09:30:08.768Z,100169.22
2019-02-23T09:32:40.897Z,100178.19
2019-02-23T09:35:13.109Z,100174.98
2019-02-23T09:37:45.220Z,100197.22
2019-02-23T09:40:17.473Z,100199.54
2019-02-23T09:42:49.577Z,100205.54
2019-02-23T09:45:21.682Z,100230.58
2019-02-23T09:47:53.783Z,100240.33
2019-02-23T09:50:25.822Z,100233.78
2019-02-23T09:52:57.925Z,100232.89
2019-02-23T09:55:30.029Z,100235.77
2019-02-23T09:58:02.194Z,100211.33
2019-02-23T10:00:34.288Z,100197.16
2019-02-23T10:03:06.395Z,100185.11
2019-02-23T10:05:38.526Z,100180.98
2019-02-23T10:08:10.618Z,100181.85
2019-02-23T10:10:42.638Z,100175.05
2019-02-23T10:13:14.709Z,100166.73
2019-02-23T10:15:46.803Z,100168.89
2019-02-23T10:18:18.824Z,100161.05
2019-02-23T10:20:50.848Z,100168.88
2019-02-23T10:23:22.883Z,100158.95
2019-02-23T10:25:54.985Z,100168.41
2019-02-23T10:28:27.083Z,100162.52
2019-02-23T10:30:59.104Z,100157.16
2019-02-23T10:33:31.128Z,100151.08
2019-02-23T10:36:03.229Z,100151.83
2019-02-23T10:38:35.258Z,100142.68
2019-02-23T10:41:07.693Z,100146.42
2019-02-23T10:43:39.796Z,100150.89
2019-02-23T10:46:12.257Z,100159.47
2019-02-23T10:48:44.378Z,100142.53
2019-02-23T10:51:16.583Z,100136.83
2019-02-23T10:53:48.686Z,100136.66
2019-02-23T10:56:20.780Z,100150.23
2019-02-23T10:58:52.876Z,100163.64
2019-02-23T11:01:24.895Z,100163.53
2019-02-23T11:03:57.011Z,100157.82
2019-02-23T11:06:29.133Z,100151.52
2019-02-23T11:09:01.159Z,100150.66
2019-02-23T11:11:33.257Z,100144.37
2019-02-23T11:14:05.337Z,100141.59
2019-02-23T11:16:37.435Z,100136.31
2019-02-23T11:19:09.542Z,100124.22
2019-02-23T11:21:41.606Z,100118.63
2019-02-23T11:24:13.964Z,100108.08
2019-02-23T11:26:46.156Z,100100.36
2019-02-23T11:29:18.180Z,100104.39
2019-02-23T11:31:50.268Z,100103.38
2019-02-23T11:34:22.317Z,100110.63
2019-02-23T11:36:54.334Z,100103.24
2019-02-23T11:39:26.354Z,100095.50
2019-02-23T11:41:58.392Z,100081.25
2019-02-23T11:44:30.490Z,100070.78
2019-02-23T11:47:02.690Z,100064.28
2019-02-23T11:49:34.788Z,100061.70
2019-02-23T11:52:06.909Z,100052.88
2019-02-23T11:54:39.008Z,100043.36
2019-02-23T11:57:11.032Z,100038.29
2019-02-23T11:59:43.138Z,100040.66
2019-02-23T12:02:15.315Z,100044.84
2019-02-23T12:04:47.371Z,100032.42
2019-02-23T12:07:19.396Z,100025.20
2019-02-23T12:09:51.491Z,100013.06
2019-02-23T12:12:23.514Z,100012.86
2019-02-23T12:14:55.549Z,100017.87
2019-02-23T12:17:27.563Z,100015.59
2019-02-23T12:19:59.579Z,100010.34
2019-02-23T12:22:31.595Z,100012.07
2019-02-23T12:25:03.719Z,100009.04
2019-02-23T12:27:35.820Z,100007.20
2019-02-23T12:30:08.315Z,100002.24
2019-02-23T12:32:40.342Z,100000.70
2019-02-23T12:35:12.404Z,99995.06
2019-02-23T12:37:44.419Z,99990.32
2019-02-23T12:40:16.609Z,99986.30
2019-02-23T12:42:48.634Z,99982.30
2019-02-23T12:45:20.729Z,99983.64
2019-02-23T12:47:52.917Z,99988.25
2019-02-23T12:50:25.018Z,99983.39
2019-02-23T12:52:59.684Z,99973.41
2019-02-23T12:55:30.838Z,99989.70
2019-02-23T12:58:02.927Z,99984.36
2019-02-23T13:00:35.031Z,99975.73
2019-02-23T13:03:07.254Z,99978.78
2019-02-23T13:05:39.387Z,99978.13
2019-02-23T13:08:11.495Z,99981.27
2019-02-23T13:10:43.725Z,99990.77
2019-02-23T13:14:06.159Z,99976.01
2019-02-23T13:16:50.680Z,99969.41
2019-02-23T13:20:17.120Z,99964.45
2019-02-23T13:23:44.636Z,99964.52
2019-02-23T13:27:10.758Z,99958.94
2019-02-23T13:30:40.930Z,99955.18
2019-02-23T13:34:30.330Z,99948.23
2019-02-23T13:37:56.595Z,99943.84
2019-02-23T13:41:35.846Z,99946.91
2019-02-23T13:45:20.048Z,99942.53
2019-02-23T13:49:07.372Z,99934.24
2019-02-23T13:52:31.799Z,99927.03
2019-02-23T13:56:20.362Z,99935.82
2019-02-23T13:59:18.540Z,99933.89
2019-02-23T14:03:14.337Z,99933.16
2019-02-23T14:06:45.883Z,99929.77
2019-02-23T14:10:34.276Z,99925.02
2019-02-23T14:14:10.627Z,99928.78
2019-02-23T14:17:32.619Z,99930.48
2019-02-23T14:21:00.350Z,99929.67
2019-02-23T14:24:25.727Z,99938.42
2019-02-23T14:27:37.603Z,99927.54
2019-02-23T14:31:20.016Z,99928.73
2019-02-23T14:34:47.743Z,99918.16
2019-02-23T14:38:09.637Z,99912.56
2019-02-23T14:41:38.871Z,99916.00
2019-02-23T14:44:58.682Z,99906.55
2019-02-23T14:48:45.343Z,99897.36
2019-02-23T14:52:01.413Z,99896.76
2019-02-23T14:55:10.523Z,99908.89
2019-02-23T14:58:41.345Z,99916.09
2019-02-23T15:02:08.550Z,99917.70
2019-02-23T15:05:39.803Z,99910.16
2019-02-23T15:08:41.334Z,99915.20
2019-02-23T15:12:24.274Z,99911.59
2019-02-23T15:15:56.210Z,99919.16
2019-02-23T15:19:22.983Z,99920.13
2019-02-23T15:22:33.682Z,99907.49
2019-02-23T15:25:47.777Z,99922.45
2019-02-23T15:29:46.236Z,99916.93
2019-02-23T15:33:31.042Z,99920.29
2019-02-23T15:36:32.752Z,99924.80
2019-02-23T15:40:07.637Z,99912.64
2019-02-23T15:43:27.472Z,99920.34
2019-02-23T15:46:49.154Z,99926.44
2019-02-23T15:49:35.272Z,99931.66
2019-02-23T15:52:10.617Z,99930.64
2019-02-23T15:54:42.522Z,99933.91
2019-02-23T15:57:14.485Z,99932.42
2019-02-23T15:59:46.470Z,99928.12
2019-02-23T16:02:18.502Z,99927.84
2019-02-23T16:04:52.870Z,99925.89
2019-02-23T16:07:24.096Z,99921.35
2019-02-23T16:09:56.089Z,99925.37
2019-02-23T16:12:28.009Z,99933.13
2019-02-23T16:14:59.945Z,99937.61
2019-02-23T16:17:31.865Z,99942.11
2019-02-23T16:20:03.799Z,99938.51
2019-02-23T16:22:35.733Z,99942.89
2019-02-23T16:25:07.673Z,99945.72
2019-02-23T16:27:39.606Z,99951.44
2019-02-23T16:30:11.906Z,99952.80
2019-02-23T16:32:43.842Z,99951.02
2019-02-23T16:35:15.782Z,99950.21
2019-02-23T16:37:47.710Z,99958.38
2019-02-23T16:40:19.623Z,99961.32
2019-02-23T16:42:51.568Z,99959.97
2019-02-23T16:45:23.486Z,99958.53
2019-02-23T16:47:55.412Z,99969.00
2019-02-23T16:50:27.394Z,99969.44
2019-02-23T16:52:59.342Z,99973.72
2019-02-23T16:55:31.305Z,99977.22
2019-02-23T16:58:03.243Z,99976.55
2019-02-23T17:00:35.232Z,99978.27
2019-02-23T17:03:07.180Z,99980.67
2019-02-23T17:05:39.252Z,99983.30
2019-02-23T17:08:11.184Z,99987.48
2019-02-23T17:10:44.108Z,99981.38
2019-02-23T17:13:16.074Z,99985.75
2019-02-23T17:15:47.992Z,99989.53
2019-02-23T17:18:19.935Z,99981.58
2019-02-23T17:20:51.849Z,99984.45
2019-02-23T17:23:23.868Z,99983.34
2019-02-23T17:26:04.318Z,99986.94
2019-02-23T17:28:29.400Z,99979.19
2019-02-23T17:31:01.301Z,99986.34
2019-02-23T17:33:33.232Z,99987.17
2019-02-23T17:36:07.751Z,99984.80
2019-02-23T17:38:39.685Z,99988.31
2019-02-23T17:41:11.869Z,99986.73
2019-02-23T17:43:44.150Z,99990.84
2019-02-23T17:46:16.047Z,99991.67
2019-02-23T17:48:48.160Z,99993.73
2019-02-23T17:51:20.049Z,99994.94
2019-02-23T17:53:52.354Z,99996.31
2019-02-23T17:56:24.243Z,99999.41
2019-02-23T17:58:56.174Z,99992.78
2019-02-23T18:01:28.070Z,99992.02
2019-02-23T18:04:00.003Z,99988.73
2019-02-23T18:06:31.942Z,99986.83
2019-02-23T18:09:04.029Z,99981.20
2019-02-23T18:11:35.928Z,99980.17
2019-02-23T18:14:07.903Z,99987.28
2019-02-23T18:16:39.840Z,99989.47
2019-02-23T18:19:11.766Z,99982.31
2019-02-23T18:21:43.709Z,99983.06
2019-02-23T18:24:15.651Z,99985.83
2019-02-23T18:26:48.010Z,99982.91
2019-02-23T18:29:19.903Z,99979.61
2019-02-23T18:31:51.839Z,99981.20
2019-02-23T18:34:23.860Z,99982.19
2019-02-23T18:36:55.783Z,99980.68
2019-02-23T18:39:27.717Z,99975.63
2019-02-23T18:42:01.345Z,99970.71
2019-02-23T18:44:33.276Z,99967.12
2019-02-23T18:47:05.206Z,99962.66
2019-02-23T18:49:37.137Z,99967.36
2019-02-23T18:52:09.080Z,99968.80
2019-02-23T18:54:41.304Z,99966.50
2019-02-23T18:57:13.244Z,99964.35
2019-02-23T18:59:45.180Z,99965.44
2019-02-23T19:02:18.071Z,99963.67
2019-02-23T19:04:49.999Z,99963.39
2019-02-23T19:07:21.968Z,99969.84
2019-02-23T19:09:53.902Z,99967.23
2019-02-23T19:12:26.106Z,99966.89
2019-02-23T19:14:58.047Z,99961.88
2019-02-23T19:17:29.965Z,99970.13
2019-02-23T19:20:01.899Z,99966.41
2019-02-23T19:22:34.916Z,99970.14
2019-02-23T19:25:07.397Z,99970.37
2019-02-23T19:27:39.431Z,99969.84
2019-02-23T19:30:12.919Z,99969.84
2019-02-23T19:32:44.877Z,99970.18
2019-02-23T19:35:16.809Z,99974.41
2019-02-23T19:37:48.744Z,99971.27
2019-02-23T19:40:20.681Z,99972.67
2019-02-23T19:42:52.612Z,99978.64
2019-02-23T19:45:24.559Z,99982.88
2019-02-23T19:47:56.490Z,99985.94
2019-02-23T19:50:34.014Z,99985.67
2019-02-23T19:53:06.073Z,99985.59
2019-02-23T19:55:38.012Z,99982.72
2019-02-23T19:58:09.940Z,99982.71
2019-02-23T20:00:41.878Z,99981.34
2019-02-23T20:03:13.828Z,99979.28
2019-02-23T20:05:47.443Z,99984.06
2019-02-23T20:08:19.375Z,99978.34
2019-02-23T20:10:51.324Z,99976.19
2019-02-23T20:13:23.283Z,99986.38
2019-02-23T20:15:55.216Z,99986.75
2019-02-23T20:18:27.191Z,99986.94
2019-02-23T20:20:59.396Z,99989.88
2019-02-23T20:23:31.321Z,99989.05
2019-02-23T20:26:03.268Z,99992.24
2019-02-23T20:28:35.198Z,99997.12
2019-02-23T20:31:07.152Z,99993.83
2019-02-23T20:33:39.100Z,99993.45
2019-02-23T20:36:11.053Z,99989.89
2019-02-23T20:38:42.986Z,99989.12
2019-02-23T20:41:15.805Z,99990.31
2019-02-23T20:43:47.898Z,99982.62
2019-02-23T20:46:19.821Z,99981.23
2019-02-23T20:48:51.835Z,99983.78
2019-02-23T20:51:23.761Z,99986.05
2019-02-23T20:53:55.719Z,99981.69
2019-02-23T20:56:27.748Z,99987.48
2019-02-23T20:58:59.683Z,99988.98
2019-02-23T21:01:31.639Z,99987.95
2019-02-23T21:04:03.575Z,99982.58
2019-02-23T21:06:35.637Z,99986.67
2019-02-23T21:09:08.154Z,99984.52
2019-02-23T21:11:40.215Z,99984.08
2019-02-23T21:14:12.518Z,99977.64
2019-02-23T21:16:44.452Z,99975.59
2019-02-23T21:19:16.498Z,99974.09
2019-02-23T21:21:48.401Z,99977.89
2019-02-23T21:24:20.339Z,99973.72
2019-02-23T21:26:52.273Z,99971.88
2019-02-23T21:29:24.202Z,99966.05
2019-02-23T21:31:56.148Z,99972.73
2019-02-23T21:34:28.101Z,99975.66
2019-02-23T21:37:00.215Z,99974.73
2019-02-23T21:39:32.236Z,99977.39
2019-02-23T21:42:04.181Z,99992.18
2019-02-23T21:44:36.137Z,99985.77
2019-02-23T21:47:08.078Z,99986.96
2019-02-23T21:49:40.021Z,99993.17
2019-02-23T21:52:12.228Z,99983.33
2019-02-23T21:54:44.180Z,99988.20
2019-02-23T21:57:22.055Z,99987.41
2019-02-23T21:59:52.544Z,99983.87
2019-02-23T22:02:24.496Z,99983.10
2019-02-23T22:04:56.445Z,99985.73
2019-02-23T22:07:28.497Z,99988.27
2019-02-23T22:10:00.783Z,99992.14
2019-02-23T22:12:32.769Z,99997.80
2019-02-23T22:15:04.846Z,99998.89
2019-02-23T22:17:36.805Z,99998.49
2019-02-23T22:20:09.000Z,99994.93
2019-02-23T22:22:40.934Z,99997.84
2019-02-23T22:25:12.861Z,99995.50
2019-02-23T22:27:44.810Z,99996.54
2019-02-23T22:30:16.760Z,99994.41
2019-02-23T22:32:48.701Z,99989.21
2019-02-23T22:35:20.469Z,99989.16
2019-02-23T22:37:52.404Z,99990.95
2019-02-23T22:40:24.333Z,99993.89
2019-02-23T22:42:56.285Z,99992.66
2019-02-23T22:45:28.214Z,99994.13
2019-02-23T22:48:00.147Z,99992.28
2019-02-23T22:50:32.099Z,99989.97
2019-02-23T22:53:04.028Z,99992.27
2019-02-23T22:55:35.973Z,99985.91
2019-02-23T22:58:07.919Z,99985.66
2019-02-23T23:00:59.911Z,99993.17
2019-02-23T23:03:31.868Z,99991.78
2019-02-23T23:06:03.911Z,99990.20
2019-02-23T23:08:35.860Z,99992.35
2019-02-23T23:11:08.151Z,99988.68
2019-02-23T23:13:40.098Z,99989.53
2019-02-23T23:16:12.034Z,99992.84
2019-02-23T23:18:43.978Z,99989.95
2019-02-23T23:21:15.907Z,99993.17
2019-02-23T23:23:47.848Z,99997.82
2019-02-23T23:26:19.912Z,99989.07
2019-02-23T23:28:52.022Z,99993.79
2019-02-23T23:31:24.107Z,99994.33
2019-02-23T23:33:56.146Z,99991.50
2019-02-23T23:36:28.235Z,99990.52
2019-02-23T23:39:00.329Z,99996.08
2019-02-23T23:41:32.358Z,99996.56
2019-02-23T23:44:04.466Z,100002.56
2019-02-23T23:46:37.327Z,100003.91
2019-02-23T23:49:09.351Z,100004.28
2019-02-23T23:51:41.445Z,100002.09
2019-02-23T23:54:13.358Z,99994.23
2019-02-23T23:56:45.290Z,99996.53
2019-02-23T23:59:17.356Z,99999.25
